Morning Charlotte — 3EMA2 — position and weather

sailwx.info

Track history (hours):
 
Tides and Currents Weather Stations Pressure Air Temp Water Temp Dewpoint Dewpoint Depression Visibility Wind Speed Wind Dir Waves Ship Positions

Morning Charlotte

Last reported at 2015-Apr-21 12:32 UTC. Time now 2015-Apr-21 13:05 UTC.
Position N 35°16' E 140°53'.

Length 200 m; draft 8.6 m.

Type: Cargo ship. MMSI: 357275000.

Date/timePositionNaut miles runAvg speedWind from/ knotsBaromVisibWave heightAir tempDewpointWater temp
2015-Apr-21 12:32N 35°16' E 140°53'4714.6
2015-Apr-21 09:18N 36°03' E 141°00'26 2.6
2015-Apr-20 23:13N 36°23' E 140°39'5 7.6
2015-Apr-20 22:33N 36°21' E 140°44'26 8.5
2015-Apr-20 19:33N 36°00' E 141°03'6715.3
2015-Apr-20 15:11N 34°57' E 140°36'1317.1
2015-Apr-20 14:24N 34°48' E 140°24'1315.1
2015-Apr-20 13:31N 34°45' E 140°08'1515.7
2015-Apr-20 12:33N 34°47' E 139°50'1313.1
2015-Apr-20 11:33N 34°57' E 139°40'1414.2
2015-Apr-20 10:33N 35°10' E 139°45'1010.1
2015-Apr-20 09:33N 35°20' E 139°43'7 7.0
2015-Apr-20 08:33N 35°27' E 139°41'0 0.1
2015-Apr-20 07:33N 35°27' E 139°41'0 0.0
2015-Apr-20 06:30N 35°27' E 139°41'0 0.0
2015-Apr-20 05:33N 35°27' E 139°41'0 0.0
2015-Apr-20 04:33N 35°27' E 139°41'0 0.0
2015-Apr-20 03:30N 35°27' E 139°41'0 0.0
2015-Apr-20 02:33N 35°27' E 139°41'0 0.0
2015-Apr-20 01:33N 35°27' E 139°41'0 0.0
2015-Apr-20 00:30N 35°27' E 139°41'0 0.0
2015-Apr-19 23:33N 35°27' E 139°41'0 0.0
2015-Apr-19 22:30N 35°27' E 139°41'2 1.7
2015-Apr-19 21:33N 35°26' E 139°43'2 1.5
2015-Apr-19 20:32N 35°26' E 139°45'6 6.1
2015-Apr-19 19:33N 35°23' E 139°51'2 2.3
2015-Apr-19 18:32N 35°22' E 139°54'0 0.0
2015-Apr-19 17:32N 35°22' E 139°54'0 0.0
2015-Apr-19 16:32N 35°22' E 139°54'0 0.0
2015-Apr-19 15:32N 35°22' E 139°54'0 0.0
2015-Apr-19 14:32N 35°22' E 139°54'0 0.0
2015-Apr-19 13:29N 35°22' E 139°54'0 0.0
2015-Apr-19 12:32N 35°22' E 139°54'0 0.0
2015-Apr-19 11:32N 35°22' E 139°54'0 0.0
2015-Apr-19 10:32N 35°22' E 139°54'0 0.0
2015-Apr-19 09:32N 35°22' E 139°54'0 0.0
2015-Apr-19 08:32N 35°22' E 139°54'0 0.0
2015-Apr-19 07:32N 35°22' E 139°54'0 0.0
2015-Apr-19 06:32N 35°22' E 139°54'3 3.5
2015-Apr-19 05:33N 35°23' E 139°50'2 1.5
2015-Apr-19 04:30N 35°25' E 139°49'1 0.6
2015-Apr-19 03:33N 35°25' E 139°48'9 8.8
2015-Apr-19 02:33N 35°16' E 139°46'9 8.8
2015-Apr-19 01:33N 35°07' E 139°46'8 8.2
2015-Apr-19 00:33N 34°59' E 139°43'1212.2
2015-Apr-18 23:33N 34°48' E 139°37'1412.3
2015-Apr-18 22:25N 34°38' E 139°26'4315.2
2015-Apr-18 19:33N 34°29' E 138°34'183 5.9
2015-Apr-17 12:33N 33°54' E 134°58'1716.6
2015-Apr-17 11:33N 34°10' E 134°58'1211.8
2015-Apr-17 10:33N 34°22' E 135°00'1616.4
2015-Apr-17 09:34N 34°33' E 135°14'9 8.0
2015-Apr-17 08:28N 34°42' E 135°17'0 0.0
2015-Apr-17 07:28N 34°42' E 135°17'0 0.0
2015-Apr-17 06:28N 34°42' E 135°17'0 0.0
2015-Apr-17 05:28N 34°42' E 135°17'0 0.0
2015-Apr-17 04:28N 34°42' E 135°17'0 0.0
2015-Apr-17 03:28N 34°42' E 135°17'0 0.0
2015-Apr-17 02:28N 34°42' E 135°17'0 0.0
2015-Apr-17 01:28N 34°42' E 135°17'0 0.0
2015-Apr-17 00:22N 34°42' E 135°17'0 0.0
2015-Apr-16 23:28N 34°42' E 135°17'0 0.0
2015-Apr-16 22:33N 34°41' E 135°17'6 6.3
2015-Apr-16 21:33N 34°35' E 135°17'1111.5
2015-Apr-16 20:33N 34°26' E 135°08'1514.6
2015-Apr-16 19:33N 34°14' E 134°59'1111.0
2015-Apr-16 18:34N 34°03' E 135°00'1110.3
2015-Apr-16 17:32N 33°52' E 134°59'  
2015-Apr-11 17:28N 12°03' E 111°55'  
Track history (hours):
 
Tides and Currents Weather Stations Pressure Air Temp Water Temp Dewpoint Dewpoint Depression Visibility Wind Speed Wind Dir Waves Ship Positions

Morning Charlotte

Last reported at 2015-Apr-21 12:32 UTC. Time now 2015-Apr-21 13:05 UTC.
Position N 35°16' E 140°53'.

Length 200 m; draft 8.6 m.

Type: Cargo ship. MMSI: 357275000.

Date/timePositionNaut miles runAvg speedWind from/ knotsBaromVisibWave heightAir tempDewpointWater temp
2015-Apr-21 12:32N 35°16' E 140°53'4714.6
2015-Apr-21 09:18N 36°03' E 141°00'26 2.6
2015-Apr-20 23:13N 36°23' E 140°39'5 7.6
2015-Apr-20 22:33N 36°21' E 140°44'26 8.5
2015-Apr-20 19:33N 36°00' E 141°03'6715.3
2015-Apr-20 15:11N 34°57' E 140°36'1317.1
2015-Apr-20 14:24N 34°48' E 140°24'1315.1
2015-Apr-20 13:31N 34°45' E 140°08'1515.7
2015-Apr-20 12:33N 34°47' E 139°50'1313.1
2015-Apr-20 11:33N 34°57' E 139°40'1414.2
2015-Apr-20 10:33N 35°10' E 139°45'1010.1
2015-Apr-20 09:33N 35°20' E 139°43'7 7.0
2015-Apr-20 08:33N 35°27' E 139°41'0 0.1
2015-Apr-20 07:33N 35°27' E 139°41'0 0.0
2015-Apr-20 06:30N 35°27' E 139°41'0 0.0
2015-Apr-20 05:33N 35°27' E 139°41'0 0.0
2015-Apr-20 04:33N 35°27' E 139°41'0 0.0
2015-Apr-20 03:30N 35°27' E 139°41'0 0.0
2015-Apr-20 02:33N 35°27' E 139°41'0 0.0
2015-Apr-20 01:33N 35°27' E 139°41'0 0.0
2015-Apr-20 00:30N 35°27' E 139°41'0 0.0
2015-Apr-19 23:33N 35°27' E 139°41'0 0.0
2015-Apr-19 22:30N 35°27' E 139°41'2 1.7
2015-Apr-19 21:33N 35°26' E 139°43'2 1.5
2015-Apr-19 20:32N 35°26' E 139°45'6 6.1
2015-Apr-19 19:33N 35°23' E 139°51'2 2.3
2015-Apr-19 18:32N 35°22' E 139°54'0 0.0
2015-Apr-19 17:32N 35°22' E 139°54'0 0.0
2015-Apr-19 16:32N 35°22' E 139°54'0 0.0
2015-Apr-19 15:32N 35°22' E 139°54'0 0.0
2015-Apr-19 14:32N 35°22' E 139°54'0 0.0
2015-Apr-19 13:29N 35°22' E 139°54'0 0.0
2015-Apr-19 12:32N 35°22' E 139°54'0 0.0
2015-Apr-19 11:32N 35°22' E 139°54'0 0.0
2015-Apr-19 10:32N 35°22' E 139°54'0 0.0
2015-Apr-19 09:32N 35°22' E 139°54'0 0.0
2015-Apr-19 08:32N 35°22' E 139°54'0 0.0
2015-Apr-19 07:32N 35°22' E 139°54'0 0.0
2015-Apr-19 06:32N 35°22' E 139°54'3 3.5
2015-Apr-19 05:33N 35°23' E 139°50'2 1.5
2015-Apr-19 04:30N 35°25' E 139°49'1 0.6
2015-Apr-19 03:33N 35°25' E 139°48'9 8.8
2015-Apr-19 02:33N 35°16' E 139°46'9 8.8
2015-Apr-19 01:33N 35°07' E 139°46'8 8.2
2015-Apr-19 00:33N 34°59' E 139°43'1212.2
2015-Apr-18 23:33N 34°48' E 139°37'1412.3
2015-Apr-18 22:25N 34°38' E 139°26'4315.2
2015-Apr-18 19:33N 34°29' E 138°34'183 5.9
2015-Apr-17 12:33N 33°54' E 134°58'1716.6
2015-Apr-17 11:33N 34°10' E 134°58'1211.8
2015-Apr-17 10:33N 34°22' E 135°00'1616.4
2015-Apr-17 09:34N 34°33' E 135°14'9 8.0
2015-Apr-17 08:28N 34°42' E 135°17'0 0.0
2015-Apr-17 07:28N 34°42' E 135°17'0 0.0
2015-Apr-17 06:28N 34°42' E 135°17'0 0.0
2015-Apr-17 05:28N 34°42' E 135°17'0 0.0
2015-Apr-17 04:28N 34°42' E 135°17'0 0.0
2015-Apr-17 03:28N 34°42' E 135°17'0 0.0
2015-Apr-17 02:28N 34°42' E 135°17'0 0.0
2015-Apr-17 01:28N 34°42' E 135°17'0 0.0
2015-Apr-17 00:22N 34°42' E 135°17'0 0.0
2015-Apr-16 23:28N 34°42' E 135°17'0 0.0
2015-Apr-16 22:33N 34°41' E 135°17'6 6.3
2015-Apr-16 21:33N 34°35' E 135°17'1111.5
2015-Apr-16 20:33N 34°26' E 135°08'1514.6
2015-Apr-16 19:33N 34°14' E 134°59'1111.0
2015-Apr-16 18:34N 34°03' E 135°00'1110.3
2015-Apr-16 17:32N 33°52' E 134°59'  
2015-Apr-11 17:28N 12°03' E 111°55'  

Dump ship's entire track history